Time;durP1;ratioP1;P1;durP2;ratioP2;P2;SDS_P1;SDS_P2;PMS_P1;PMS_P2;Temp;Humidity;BMP_temperature;BMP_pressure;BME280_temperature;BME280_humidity;BME280_pressure;Samples;Min_cycle;Max_cycle;Signal;HPM_P1;HPM_P2
2023/08/09 00:00:11;;;;;;;1.73;0.73;;;12.20;99.90;;;;;;5066098;28;20057;-68
2023/08/09 00:02:36;;;;;;;1.02;0.40;;;12.20;99.90;;;;;;5062998;28;20421;-67
2023/08/09 00:05:04;;;;;;;2.13;0.60;;;12.20;99.90;;;;;;5070731;28;20044;-67
2023/08/09 00:07:30;;;;;;;1.63;0.85;;;12.20;99.90;;;;;;5074879;28;20040;-67
2023/08/09 00:09:55;;;;;;;4.43;0.50;;;12.20;99.90;;;;;;5070201;28;20044;-67
2023/08/09 00:12:21;;;;;;;3.80;0.60;;;12.10;99.90;;;;;;5079375;28;20037;-67
2023/08/09 00:14:47;;;;;;;4.43;0.95;;;12.10;99.90;;;;;;5065666;28;20045;-67
2023/08/09 00:17:12;;;;;;;3.45;0.95;;;12.10;99.90;;;;;;5066237;28;20111;-67
2023/08/09 00:19:38;;;;;;;1.05;0.45;;;12.10;99.90;;;;;;5068371;28;20058;-67
2023/08/09 00:22:04;;;;;;;4.75;1.13;;;12.10;99.90;;;;;;5087765;28;20075;-67
2023/08/09 00:24:30;;;;;;;2.00;0.82;;;12.10;99.90;;;;;;5071046;28;20064;-67
2023/08/09 00:26:55;;;;;;;2.60;0.73;;;12.10;99.90;;;;;;5067564;28;20051;-68
2023/08/09 00:29:22;;;;;;;5.78;0.90;;;12.00;99.90;;;;;;5065095;28;20201;-67
2023/08/09 00:31:48;;;;;;;4.30;0.65;;;12.00;99.90;;;;;;5066912;28;20071;-67
2023/08/09 00:34:13;;;;;;;1.40;0.68;;;12.00;99.90;;;;;;5066147;28;20492;-67
2023/08/09 00:36:39;;;;;;;4.40;0.90;;;11.90;99.90;;;;;;5068030;28;20388;-67
2023/08/09 00:39:05;;;;;;;2.20;0.70;;;11.90;99.90;;;;;;5088009;28;20466;-68
2023/08/09 00:41:32;;;;;;;2.97;0.57;;;11.90;99.90;;;;;;5078252;28;20403;-67
2023/08/09 00:43:58;;;;;;;3.30;0.65;;;11.90;99.90;;;;;;5066599;28;20396;-67
2023/08/09 00:46:24;;;;;;;3.55;0.60;;;11.90;99.90;;;;;;5064602;28;20056;-68
2023/08/09 00:48:49;;;;;;;4.30;0.75;;;11.80;99.90;;;;;;5065444;28;20052;-68
2023/08/09 00:51:15;;;;;;;2.95;0.70;;;11.80;99.90;;;;;;5064810;28;20571;-67
2023/08/09 00:53:41;;;;;;;1.40;0.57;;;11.80;99.90;;;;;;5064516;28;20131;-67
2023/08/09 00:56:07;;;;;;;2.88;0.80;;;11.80;99.90;;;;;;5067207;28;20041;-67
2023/08/09 00:58:32;;;;;;;4.63;0.82;;;11.80;99.90;;;;;;5065438;28;20056;-67
2023/08/09 01:00:58;;;;;;;2.05;0.47;;;11.80;99.90;;;;;;5065962;28;20489;-67
2023/08/09 01:03:24;;;;;;;4.28;0.52;;;11.80;99.90;;;;;;5065841;28;20474;-67
2023/08/09 01:06:18;;;;;;;2.55;0.77;;;11.80;99.90;;;;;;5067004;28;20047;-67
2023/08/09 01:08:53;;;;;;;6.18;1.08;;;11.80;99.90;;;;;;5066910;28;20044;-67
2023/08/09 01:11:32;;;;;;;3.90;0.68;;;11.80;99.90;;;;;;5053077;28;20056;-67
2023/08/09 01:13:59;;;;;;;3.28;0.50;;;11.80;99.90;;;;;;5066888;28;20068;-67
2023/08/09 01:16:27;;;;;;;6.60;0.73;;;11.80;99.90;;;;;;5065106;28;20443;-68
2023/08/09 01:18:55;;;;;;;10.45;0.95;;;11.80;99.90;;;;;;5066678;28;20327;-67
2023/08/09 01:21:23;;;;;;;6.00;1.00;;;11.80;99.90;;;;;;5065824;28;20402;-69
2023/08/09 01:23:49;;;;;;;2.83;0.60;;;11.80;99.90;;;;;;5064870;28;20052;-67
2023/08/09 01:26:15;;;;;;;3.28;0.50;;;11.80;99.90;;;;;;5066463;28;20067;-67
2023/08/09 01:28:41;;;;;;;4.55;0.70;;;11.80;99.90;;;;;;5065176;28;20132;-67
2023/08/09 01:31:06;;;;;;;3.42;0.75;;;11.80;99.90;;;;;;5065201;28;20469;-67
2023/08/09 01:33:32;;;;;;;2.83;0.50;;;11.80;99.90;;;;;;5073097;28;20044;-67
2023/08/09 01:36:08;;;;;;;5.03;0.90;;;11.80;99.90;;;;;;5073240;28;20048;-68
2023/08/09 01:38:37;;;;;;;2.78;0.63;;;11.80;99.90;;;;;;5066560;28;20351;-68
2023/08/09 01:41:05;;;;;;;8.18;0.90;;;11.70;99.90;;;;;;5065471;28;20048;-67
2023/08/09 01:43:31;;;;;;;4.32;0.65;;;11.80;99.90;;;;;;5051413;28;20097;-67
2023/08/09 01:45:59;;;;;;;6.65;1.13;;;11.70;99.90;;;;;;5063496;28;20044;-67
2023/08/09 01:48:25;;;;;;;3.38;0.73;;;11.70;99.90;;;;;;5065318;28;20084;-67
2023/08/09 01:50:50;;;;;;;4.63;0.70;;;11.70;99.90;;;;;;5065056;28;20082;-67
2023/08/09 01:53:16;;;;;;;6.57;1.15;;;11.70;99.90;;;;;;5066384;28;20045;-67
2023/08/09 01:55:42;;;;;;;2.80;0.50;;;11.80;99.90;;;;;;5065659;28;20040;-67
2023/08/09 01:58:08;;;;;;;1.42;0.70;;;11.70;99.90;;;;;;5065286;28;20060;-67
2023/08/09 02:00:33;;;;;;;2.63;0.60;;;11.70;99.90;;;;;;5068360;28;20144;-67
2023/08/09 02:02:59;;;;;;;2.45;0.70;;;11.70;99.90;;;;;;5069054;28;20083;-67
2023/08/09 02:05:25;;;;;;;10.18;1.25;;;11.70;99.90;;;;;;5068345;28;20060;-67
2023/08/09 02:07:51;;;;;;;6.40;1.17;;;11.70;99.90;;;;;;5068585;28;20048;-67
2023/08/09 02:10:17;;;;;;;3.38;0.80;;;11.70;99.90;;;;;;5069467;28;20482;-67
2023/08/09 02:12:47;;;;;;;1.83;0.75;;;11.70;99.90;;;;;;5082761;28;20036;-67
2023/08/09 02:15:15;;;;;;;3.45;0.80;;;11.80;99.90;;;;;;5069756;28;20048;-67
2023/08/09 02:17:42;;;;;;;3.22;0.60;;;11.70;99.90;;;;;;5067686;28;20576;-68
2023/08/09 02:20:09;;;;;;;4.68;0.80;;;11.70;99.90;;;;;;5068623;28;20052;-68
2023/08/09 02:22:39;;;;;;;1.00;0.50;;;11.70;99.90;;;;;;5084696;28;20413;-67
2023/08/09 02:25:10;;;;;;;4.50;0.98;;;11.70;99.90;;;;;;5068137;28;20044;-68
2023/08/09 02:27:36;;;;;;;8.63;0.80;;;11.70;99.90;;;;;;5068781;28;20048;-67
2023/08/09 02:30:03;;;;;;;0.60;0.50;;;11.70;99.90;;;;;;5067232;28;20052;-68
2023/08/09 02:32:33;;;;;;;1.67;0.65;;;11.70;99.90;;;;;;5069570;28;20452;-67
2023/08/09 02:35:00;;;;;;;8.45;0.80;;;11.60;99.90;;;;;;5068259;28;20100;-67
2023/08/09 02:37:27;;;;;;;1.88;0.70;;;11.60;99.90;;;;;;5068981;28;20509;-67
2023/08/09 02:39:53;;;;;;;3.13;0.70;;;11.60;99.90;;;;;;5072452;28;20044;-67
2023/08/09 02:42:19;;;;;;;1.75;0.60;;;11.50;99.90;;;;;;5070280;28;20052;-68
2023/08/09 02:44:45;;;;;;;1.73;0.75;;;11.50;99.90;;;;;;5070943;28;20048;-68
2023/08/09 02:47:11;;;;;;;2.97;0.80;;;11.40;99.90;;;;;;5067555;28;20045;-67
2023/08/09 02:49:36;;;;;;;2.17;0.63;;;11.40;99.90;;;;;;5069209;28;20041;-67
2023/08/09 02:52:02;;;;;;;4.38;0.70;;;11.30;99.90;;;;;;5067182;28;20048;-68
2023/08/09 02:54:29;;;;;;;5.05;0.85;;;11.30;99.90;;;;;;5067120;28;20409;-68
2023/08/09 02:56:55;;;;;;;5.88;0.82;;;11.30;99.90;;;;;;5067944;28;20049;-67
2023/08/09 02:59:21;;;;;;;3.83;0.70;;;11.30;99.90;;;;;;5066803;28;20069;-68
2023/08/09 03:01:46;;;;;;;5.93;0.57;;;11.20;99.90;;;;;;5069441;28;20055;-67
2023/08/09 03:04:12;;;;;;;4.90;0.70;;;11.20;99.90;;;;;;5065925;28;20127;-67
2023/08/09 03:06:38;;;;;;;2.05;0.65;;;11.20;99.90;;;;;;5067747;28;20040;-67
2023/08/09 03:09:04;;;;;;;1.33;0.60;;;11.20;99.90;;;;;;5048985;28;20071;-67
2023/08/09 03:11:29;;;;;;;4.18;0.88;;;11.10;99.90;;;;;;5075705;28;20040;-67
2023/08/09 03:13:55;;;;;;;0.40;0.40;;;11.10;99.90;;;;;;5088230;28;20059;-67
2023/08/09 03:16:22;;;;;;;3.50;0.95;;;11.20;99.90;;;;;;5081388;28;20359;-67
2023/08/09 03:18:48;;;;;;;4.80;0.68;;;11.10;99.90;;;;;;5068978;28;20052;-67
2023/08/09 03:21:14;;;;;;;5.13;1.30;;;11.10;99.90;;;;;;5066312;28;20463;-67
2023/08/09 03:23:40;;;;;;;3.08;0.70;;;11.10;99.90;;;;;;5068748;28;20458;-66
2023/08/09 03:26:06;;;;;;;3.67;0.73;;;11.10;99.90;;;;;;5065878;28;20083;-67
2023/08/09 03:28:33;;;;;;;3.88;1.17;;;11.10;99.90;;;;;;5066600;28;20052;-67
2023/08/09 03:30:59;;;;;;;4.88;0.80;;;11.10;99.90;;;;;;5067314;28;20405;-67
2023/08/09 03:33:28;;;;;;;6.57;0.95;;;11.10;99.90;;;;;;5068241;28;20049;-67
2023/08/09 03:35:53;;;;;;;4.30;0.50;;;11.10;99.90;;;;;;5068455;28;20564;-67
2023/08/09 03:38:20;;;;;;;4.47;0.52;;;11.10;99.90;;;;;;5065012;28;20041;-67
2023/08/09 03:40:45;;;;;;;3.05;0.70;;;11.10;99.90;;;;;;5068114;28;20048;-67
2023/08/09 03:43:11;;;;;;;2.08;0.70;;;11.10;99.90;;;;;;5064988;28;20044;-67
2023/08/09 03:45:37;;;;;;;5.57;0.77;;;11.10;99.90;;;;;;5067705;28;20402;-67
2023/08/09 03:48:03;;;;;;;1.42;0.47;;;11.10;99.90;;;;;;5065809;28;20045;-67
2023/08/09 03:50:29;;;;;;;2.05;0.60;;;11.10;99.90;;;;;;5067408;28;20036;-67
2023/08/09 03:52:55;;;;;;;1.00;0.40;;;11.10;99.90;;;;;;5066363;28;20469;-67
2023/08/09 03:55:20;;;;;;;6.80;0.77;;;11.10;99.90;;;;;;5072041;28;20063;-68
2023/08/09 03:57:46;;;;;;;2.55;0.82;;;11.10;99.90;;;;;;5076727;28;20040;-67
2023/08/09 04:00:17;;;;;;;5.18;0.82;;;11.10;99.90;;;;;;5064825;28;20088;-68
2023/08/09 04:02:47;;;;;;;1.58;0.60;;;11.10;99.90;;;;;;5067639;28;20102;-68
2023/08/09 04:05:14;;;;;;;2.08;0.50;;;11.10;99.90;;;;;;5066085;28;20044;-67
2023/08/09 04:07:42;;;;;;;4.18;0.77;;;11.10;99.90;;;;;;5067685;28;20041;-67
2023/08/09 04:10:08;;;;;;;5.82;0.90;;;11.10;99.90;;;;;;5067126;28;20044;-70
2023/08/09 04:12:37;;;;;;;7.18;1.00;;;11.10;99.90;;;;;;5072718;28;20028;-67
2023/08/09 04:15:06;;;;;;;5.55;1.50;;;11.10;99.90;;;;;;5066221;28;20512;-67
2023/08/09 04:17:32;;;;;;;1.33;0.40;;;11.10;99.90;;;;;;5065582;28;20102;-67
2023/08/09 04:20:02;;;;;;;1.40;0.77;;;11.10;99.90;;;;;;5067782;28;20064;-67
2023/08/09 04:22:29;;;;;;;4.25;0.63;;;11.10;99.90;;;;;;5064191;28;20055;-68
2023/08/09 04:24:54;;;;;;;2.25;0.60;;;11.00;99.90;;;;;;5066446;28;20097;-67
2023/08/09 04:27:22;;;;;;;1.13;0.57;;;11.00;99.90;;;;;;5066712;28;20420;-68
2023/08/09 04:29:48;;;;;;;4.55;1.05;;;11.00;99.90;;;;;;5064810;28;20060;-68
2023/08/09 04:32:13;;;;;;;2.50;1.30;;;11.00;99.90;;;;;;5066432;28;20560;-67
2023/08/09 04:34:39;;;;;;;1.05;0.35;;;11.00;99.90;;;;;;5064041;28;20063;-67
2023/08/09 04:37:05;;;;;;;5.88;1.02;;;11.00;99.90;;;;;;5067863;28;20044;-67
2023/08/09 04:39:30;;;;;;;0.88;0.32;;;11.00;99.90;;;;;;5065423;28;20044;-67
2023/08/09 04:41:56;;;;;;;3.65;0.82;;;11.00;99.90;;;;;;5067542;28;20048;-67
2023/08/09 04:44:22;;;;;;;2.63;0.80;;;11.00;99.90;;;;;;5065259;28;20044;-67
2023/08/09 04:46:47;;;;;;;6.30;0.80;;;11.00;99.90;;;;;;5065590;28;20044;-67
2023/08/09 04:49:13;;;;;;;1.85;0.68;;;11.00;99.90;;;;;;5066125;28;20409;-67
2023/08/09 04:51:40;;;;;;;2.25;0.70;;;11.00;99.90;;;;;;5064564;28;20052;-67
2023/08/09 04:54:06;;;;;;;2.83;0.88;;;11.00;99.90;;;;;;5067228;28;20082;-67
2023/08/09 04:56:32;;;;;;;3.50;0.80;;;11.00;99.90;;;;;;5065346;28;20397;-67
2023/08/09 04:58:57;;;;;;;4.07;0.80;;;11.10;99.90;;;;;;5066318;28;20052;-67
2023/08/09 05:01:23;;;;;;;1.48;0.50;;;11.10;99.90;;;;;;5073214;28;20512;-68
2023/08/09 05:03:49;;;;;;;2.05;0.57;;;11.10;99.90;;;;;;5066325;28;20041;-67
2023/08/09 05:06:14;;;;;;;5.60;0.80;;;11.20;99.90;;;;;;5066422;28;20055;-67
2023/08/09 05:08:40;;;;;;;1.33;0.60;;;11.20;99.90;;;;;;5064594;28;20044;-67
2023/08/09 05:11:06;;;;;;;3.22;1.10;;;11.20;99.90;;;;;;5071923;28;20036;-67
2023/08/09 05:13:31;;;;;;;2.17;0.75;;;11.30;99.90;;;;;;5074622;28;20482;-68
2023/08/09 05:15:57;;;;;;;5.38;2.35;;;11.30;99.90;;;;;;5065348;28;20044;-68
2023/08/09 05:18:23;;;;;;;2.00;0.50;;;11.40;99.90;;;;;;5063950;28;20049;-68
2023/08/09 05:20:49;;;;;;;3.42;0.65;;;11.50;99.90;;;;;;5065031;28;20464;-68
2023/08/09 05:23:14;;;;;;;3.03;0.70;;;11.50;99.90;;;;;;5064372;28;20056;-68
2023/08/09 05:25:40;;;;;;;2.55;1.13;;;11.60;99.90;;;;;;5066101;28;20041;-68
2023/08/09 05:28:06;;;;;;;3.00;0.68;;;11.70;99.90;;;;;;5066111;28;20087;-68
2023/08/09 05:30:32;;;;;;;4.45;0.90;;;11.70;99.90;;;;;;5068230;28;20096;-68
2023/08/09 05:32:58;;;;;;;5.88;0.73;;;11.80;99.90;;;;;;5067601;28;20120;-69
2023/08/09 05:35:26;;;;;;;5.03;1.48;;;11.90;99.90;;;;;;5067572;28;20575;-67
2023/08/09 05:37:52;;;;;;;1.95;1.25;;;11.90;99.90;;;;;;5084702;28;20410;-68
2023/08/09 05:40:18;;;;;;;2.90;0.57;;;12.00;99.90;;;;;;5066524;28;20048;-68
2023/08/09 05:42:44;;;;;;;3.25;0.60;;;12.00;99.90;;;;;;5070020;28;20048;-68
2023/08/09 05:45:10;;;;;;;2.22;0.60;;;12.10;99.90;;;;;;5067773;28;20044;-68
2023/08/09 05:47:35;;;;;;;2.78;0.50;;;12.20;99.90;;;;;;5067325;28;20045;-68
2023/08/09 05:50:01;;;;;;;2.15;0.60;;;12.30;99.90;;;;;;5070188;28;20370;-68
2023/08/09 05:52:28;;;;;;;3.63;0.73;;;12.30;99.90;;;;;;5067413;28;20133;-68
2023/08/09 05:54:53;;;;;;;3.38;0.70;;;12.40;99.90;;;;;;5070297;28;20079;-68
2023/08/09 05:57:19;;;;;;;1.73;0.57;;;12.50;99.90;;;;;;5068963;28;20032;-68
2023/08/09 05:59:45;;;;;;;6.35;0.60;;;12.60;99.90;;;;;;5067672;28;20059;-68
2023/08/09 06:02:10;;;;;;;2.35;0.80;;;12.70;99.90;;;;;;5063618;28;20040;-67
2023/08/09 06:04:36;;;;;;;6.50;0.93;;;12.80;99.90;;;;;;5055014;28;20123;-67
2023/08/09 06:07:02;;;;;;;3.30;1.10;;;12.90;99.90;;;;;;5057527;28;20071;-67
2023/08/09 06:09:28;;;;;;;4.57;0.90;;;13.00;99.90;;;;;;5067537;28;20083;-68
2023/08/09 06:11:54;;;;;;;2.15;0.73;;;13.10;99.90;;;;;;5081447;28;20056;-67
2023/08/09 06:14:20;;;;;;;5.85;1.25;;;13.20;99.90;;;;;;5070585;28;20447;-67
2023/08/09 06:16:48;;;;;;;6.03;0.90;;;13.30;99.90;;;;;;5067788;28;20059;-73
2023/08/09 06:19:13;;;;;;;1.50;0.50;;;13.40;99.90;;;;;;5068466;28;20146;-68
2023/08/09 06:21:40;;;;;;;5.22;0.77;;;13.50;99.90;;;;;;5069645;28;20496;-69
2023/08/09 06:24:06;;;;;;;2.50;0.95;;;13.60;99.90;;;;;;5067128;28;20133;-68
2023/08/09 06:26:33;;;;;;;5.85;1.48;;;13.70;99.90;;;;;;5068013;28;20180;-69
2023/08/09 06:29:00;;;;;;;3.10;0.70;;;13.90;99.90;;;;;;5068033;28;20044;-68
2023/08/09 06:31:25;;;;;;;5.80;1.10;;;14.00;99.90;;;;;;5067631;28;20604;-68
2023/08/09 06:33:53;;;;;;;10.50;0.85;;;14.10;99.90;;;;;;5068322;28;20041;-69
2023/08/09 06:36:19;;;;;;;3.03;0.73;;;14.20;99.90;;;;;;5066426;28;20037;-68
2023/08/09 06:38:44;;;;;;;2.22;0.70;;;14.20;99.90;;;;;;5078192;28;20563;-68
2023/08/09 06:41:10;;;;;;;7.40;0.90;;;14.40;99.90;;;;;;5071959;28;20044;-68
2023/08/09 06:43:36;;;;;;;3.75;1.50;;;14.50;99.90;;;;;;5069211;28;20098;-68
2023/08/09 06:46:02;;;;;;;2.72;0.80;;;14.50;99.90;;;;;;5064447;28;20409;-69
2023/08/09 06:48:29;;;;;;;3.67;0.70;;;14.60;99.90;;;;;;5068316;28;20044;-69
2023/08/09 06:50:59;;;;;;;2.65;0.63;;;14.70;99.90;;;;;;5051044;28;20114;-68
2023/08/09 06:53:25;;;;;;;1.70;0.50;;;14.70;99.90;;;;;;5062007;28;20040;-68
2023/08/09 06:55:51;;;;;;;16.55;1.40;;;14.80;99.90;;;;;;5070250;28;20057;-69
2023/08/09 06:58:17;;;;;;;5.07;0.60;;;14.90;99.90;;;;;;5078357;28;20089;-69
2023/08/09 07:00:45;;;;;;;8.73;1.20;;;15.00;99.90;;;;;;5076108;28;20459;-69
2023/08/09 07:03:11;;;;;;;3.42;0.85;;;15.10;99.90;;;;;;5060689;28;20519;-69
2023/08/09 07:05:36;;;;;;;3.55;0.80;;;15.20;99.90;;;;;;5068078;28;20048;-68
2023/08/09 07:08:02;;;;;;;6.05;1.10;;;15.30;99.90;;;;;;5067556;28;20098;-68
2023/08/09 07:10:28;;;;;;;5.32;0.95;;;15.50;99.90;;;;;;5065793;28;20498;-68
2023/08/09 07:12:54;;;;;;;2.10;0.80;;;15.60;99.90;;;;;;5068655;28;20044;-69
2023/08/09 07:15:20;;;;;;;5.10;0.98;;;15.80;99.90;;;;;;5065895;28;20048;-68
2023/08/09 07:17:46;;;;;;;3.28;0.98;;;15.90;99.90;;;;;;5068028;28;20070;-69
2023/08/09 07:20:14;;;;;;;2.85;0.82;;;16.10;99.90;;;;;;5066006;28;20049;-68
2023/08/09 07:22:43;;;;;;;6.78;1.10;;;16.20;99.90;;;;;;5050489;28;20052;-68
2023/08/09 07:25:11;;;;;;;1.38;0.60;;;16.40;98.70;;;;;;5068743;28;20059;-68
2023/08/09 07:27:44;;;;;;;2.50;0.70;;;16.60;97.30;;;;;;5067514;28;20077;-68
2023/08/09 07:30:12;;;;;;;2.45;0.90;;;16.80;92.10;;;;;;5067341;28;20382;-68
2023/08/09 07:32:44;;;;;;;3.13;0.80;;;17.00;85.40;;;;;;5067383;28;20056;-68
2023/08/09 07:35:11;;;;;;;4.28;0.75;;;17.20;88.70;;;;;;5068121;28;20102;-69
2023/08/09 07:37:40;;;;;;;3.65;1.02;;;17.40;89.60;;;;;;5066719;28;20478;-68
2023/08/09 07:40:07;;;;;;;1.17;0.70;;;17.60;82.30;;;;;;5066214;28;20041;-68
2023/08/09 07:42:36;;;;;;;3.00;0.80;;;17.90;65.70;;;;;;5068095;28;20052;-68
2023/08/09 07:45:03;;;;;;;4.30;0.80;;;18.00;54.60;;;;;;5064577;28;20129;-69
2023/08/09 07:47:29;;;;;;;5.55;1.02;;;18.20;44.70;;;;;;5068123;28;20482;-69
2023/08/09 07:49:54;;;;;;;5.15;1.10;;;18.30;31.60;;;;;;5061976;28;20126;-70
2023/08/09 07:52:20;;;;;;;1.60;1.17;;;18.40;17.70;;;;;;5056719;28;20124;-70
2023/08/09 07:54:46;;;;;;;3.13;0.80;;;18.40;23.30;;;;;;5081765;28;20410;-69
2023/08/09 07:57:13;;;;;;;2.22;0.75;;;18.50;10.20;;;;;;5065439;28;20171;-69
2023/08/09 07:59:39;;;;;;;8.75;1.30;;;18.50;24.80;;;;;;5082695;28;20052;-69
2023/08/09 08:02:06;;;;;;;4.70;0.82;;;18.80;33.00;;;;;;5082317;28;20136;-70
2023/08/09 08:04:32;;;;;;;2.58;0.85;;;18.90;6.70;;;;;;5066240;28;20040;-69
2023/08/09 08:06:58;;;;;;;5.25;0.95;;;18.90;7.70;;;;;;5068027;28;20051;-68
2023/08/09 08:09:24;;;;;;;1.90;0.60;;;18.90;5.70;;;;;;5076613;28;20032;-69
2023/08/09 08:11:52;;;;;;;3.90;0.63;;;19.00;11.50;;;;;;5064440;28;20118;-68
2023/08/09 08:14:18;;;;;;;10.13;1.75;;;19.20;18.90;;;;;;5075965;28;20056;-68
2023/08/09 08:16:44;;;;;;;3.38;0.60;;;19.40;14.30;;;;;;5073346;28;20425;-68
2023/08/09 08:19:10;;;;;;;5.57;1.20;;;19.60;6.30;;;;;;5071750;28;20036;-70
2023/08/09 08:21:35;;;;;;;6.93;0.95;;;19.50;1.00;;;;;;5069896;28;20055;-68
2023/08/09 08:24:04;;;;;;;1.80;0.50;;;19.40;1.00;;;;;;5067019;28;20045;-69
2023/08/09 08:26:30;;;;;;;3.13;0.95;;;19.40;1.00;;;;;;5066999;28;20528;-69
2023/08/09 08:28:56;;;;;;;2.03;0.65;;;19.20;1.00;;;;;;5077365;28;20051;-69
2023/08/09 08:31:22;;;;;;;3.95;1.23;;;19.10;1.00;;;;;;5083594;28;20409;-68
2023/08/09 08:33:49;;;;;;;2.65;0.85;;;19.10;1.00;;;;;;5081642;28;20043;-69
2023/08/09 08:36:16;;;;;;;1.50;0.50;;;19.20;1.00;;;;;;5075893;28;20052;-69
2023/08/09 08:38:42;;;;;;;2.28;0.85;;;19.20;1.00;;;;;;5072802;28;20097;-68
2023/08/09 08:41:08;;;;;;;2.92;0.68;;;19.20;1.00;;;;;;5076645;28;20497;-68
2023/08/09 08:43:34;;;;;;;6.03;0.90;;;19.30;1.00;;;;;;5064932;28;20047;-68
2023/08/09 08:46:04;;;;;;;4.43;1.30;;;19.30;1.00;;;;;;5076000;28;20078;-69
2023/08/09 08:48:34;;;;;;;1.25;0.60;;;19.50;1.00;;;;;;5069514;28;20049;-68
2023/08/09 08:51:05;;;;;;;3.05;0.68;;;19.40;1.00;;;;;;5061906;28;20044;-68
2023/08/09 08:53:32;;;;;;;3.40;0.65;;;19.20;1.00;;;;;;5074746;28;20447;-68
2023/08/09 08:55:58;;;;;;;3.63;0.70;;;19.10;1.00;;;;;;5067096;28;20051;-67
2023/08/09 08:58:24;;;;;;;3.80;0.68;;;19.30;1.00;;;;;;5070132;28;20095;-69
2023/08/09 09:00:50;;;;;;;5.55;0.63;;;19.50;1.00;;;;;;5064495;28;20510;-67
2023/08/09 09:03:15;;;;;;;4.57;0.88;;;19.50;1.00;;;;;;5049822;28;20482;-68
2023/08/09 09:05:41;;;;;;;1.73;0.55;;;19.30;1.00;;;;;;5055584;28;20127;-67
2023/08/09 09:08:08;;;;;;;2.60;0.70;;;19.30;1.00;;;;;;5051921;28;20074;-68
2023/08/09 09:10:34;;;;;;;6.72;0.90;;;19.30;1.00;;;;;;5071345;28;20045;-67
2023/08/09 09:12:59;;;;;;;7.07;2.20;;;19.30;1.00;;;;;;5068561;28;20474;-68
2023/08/09 09:15:27;;;;;;;2.42;0.60;;;19.10;1.00;;;;;;5070287;28;20445;-68
2023/08/09 09:17:53;;;;;;;1.60;0.60;;;18.80;1.00;;;;;;5069322;28;20052;-68
2023/08/09 09:20:27;;;;;;;1.25;0.70;;;18.80;1.00;;;;;;5067600;28;20139;-68
2023/08/09 09:22:53;;;;;;;9.35;1.00;;;19.00;1.00;;;;;;5071038;28;20056;-68
2023/08/09 09:25:22;;;;;;;3.83;0.85;;;19.30;1.00;;;;;;5068853;28;20478;-68
2023/08/09 09:27:52;;;;;;;3.55;1.00;;;19.50;1.00;;;;;;5068417;28;20067;-68
2023/08/09 09:30:19;;;;;;;4.32;0.80;;;19.60;1.00;;;;;;5074846;28;20078;-67
2023/08/09 09:33:03;;;;;;;2.78;0.70;;;19.40;1.00;;;;;;5077583;28;20036;-68
2023/08/09 09:35:32;;;;;;;1.75;0.68;;;19.20;1.00;;;;;;5086900;28;20047;-68
2023/08/09 09:38:00;;;;;;;2.60;0.70;;;19.20;1.00;;;;;;5077460;28;20444;-67
2023/08/09 09:40:25;;;;;;;1.15;0.70;;;19.00;1.00;;;;;;5077302;28;20494;-68
2023/08/09 09:42:53;;;;;;;1.73;0.55;;;18.80;1.00;;;;;;5075481;28;20036;-68
2023/08/09 09:45:27;;;;;;;0.82;0.60;;;18.70;1.00;;;;;;5080255;28;20548;-68
2023/08/09 09:47:57;;;;;;;7.13;0.63;;;18.90;1.00;;;;;;5074116;28;20115;-68
2023/08/09 09:50:25;;;;;;;2.65;0.80;;;19.30;1.00;;;;;;5070888;28;20093;-68
2023/08/09 09:52:52;;;;;;;1.55;0.60;;;19.40;1.00;;;;;;5069986;28;20532;-68
2023/08/09 09:55:25;;;;;;;1.33;0.47;;;19.40;1.00;;;;;;5066694;28;20078;-68
2023/08/09 09:57:53;;;;;;;2.65;0.63;;;19.40;1.00;;;;;;5062097;28;20041;-68
2023/08/09 10:00:27;;;;;;;1.38;0.50;;;19.40;1.00;;;;;;5053840;28;20075;-68
2023/08/09 10:02:54;;;;;;;3.08;0.70;;;19.60;1.00;;;;;;5063300;28;20048;-67
2023/08/09 10:05:26;;;;;;;1.95;0.57;;;19.80;1.00;;;;;;5056122;28;20362;-69
2023/08/09 10:07:52;;;;;;;1.67;0.47;;;19.80;1.00;;;;;;5049360;28;20083;-68
2023/08/09 10:10:18;;;;;;;0.63;0.55;;;19.60;1.00;;;;;;5050543;28;20448;-67
2023/08/09 10:12:47;;;;;;;2.90;0.75;;;19.40;1.00;;;;;;5066833;28;20036;-67
2023/08/09 10:15:17;;;;;;;4.22;0.95;;;19.20;1.00;;;;;;5069717;28;20086;-67
2023/08/09 10:17:45;;;;;;;2.80;0.70;;;19.10;1.00;;;;;;5068857;28;20032;-68
2023/08/09 10:20:13;;;;;;;4.15;0.60;;;18.90;1.00;;;;;;5067256;28;20071;-68
2023/08/09 10:22:39;;;;;;;2.30;0.45;;;19.00;1.00;;;;;;5067792;28;20115;-68
2023/08/09 10:25:06;;;;;;;1.17;0.50;;;19.20;1.00;;;;;;5068539;28;20120;-68
2023/08/09 10:27:53;;;;;;;0.50;0.45;;;19.30;1.00;;;;;;5071393;28;20067;-67
2023/08/09 10:30:28;;;;;;;1.63;0.68;;;19.30;1.00;;;;;;5067644;28;20044;-67
2023/08/09 10:32:56;;;;;;;0.95;0.40;;;19.20;1.00;;;;;;5069661;28;20044;-67
2023/08/09 10:35:51;;;;;;;4.28;0.65;;;19.20;1.00;;;;;;5064781;28;20037;-68
2023/08/09 10:38:30;;;;;;;1.13;0.60;;;19.10;1.00;;;;;;5052844;28;20509;-67
2023/08/09 10:40:56;;;;;;;2.13;0.65;;;19.10;1.00;;;;;;5069074;28;20043;-68
2023/08/09 10:43:24;;;;;;;2.17;0.60;;;19.40;1.00;;;;;;5068627;28;20037;-68
2023/08/09 10:45:53;;;;;;;0.75;0.50;;;19.40;1.00;;;;;;5069151;28;20094;-68
2023/08/09 10:48:28;;;;;;;1.80;0.55;;;19.40;1.00;;;;;;5068475;28;20111;-67
2023/08/09 10:51:14;;;;;;;0.75;0.40;;;19.30;1.00;;;;;;5067328;28;20048;-67
2023/08/09 10:54:05;;;;;;;1.40;0.60;;;19.10;1.00;;;;;;5068000;28;20041;-68
2023/08/09 10:56:47;;;;;;;1.00;0.68;;;19.20;1.00;;;;;;5066336;28;20049;-68
2023/08/09 10:59:25;;;;;;;1.52;0.55;;;19.40;1.00;;;;;;5078638;28;20127;-75
2023/08/09 11:01:53;;;;;;;2.70;1.13;;;19.40;1.00;;;;;;5067522;28;20068;-67
2023/08/09 11:04:18;;;;;;;3.00;0.70;;;19.40;1.00;;;;;;5066246;28;20082;-68
2023/08/09 11:06:49;;;;;;;4.32;0.95;;;19.40;1.00;;;;;;5068389;28;20436;-68
2023/08/09 11:09:23;;;;;;;3.95;0.70;;;19.40;1.00;;;;;;5065705;28;20052;-67
2023/08/09 11:11:51;;;;;;;1.80;0.70;;;19.60;1.00;;;;;;5067732;28;20530;-67
2023/08/09 11:14:18;;;;;;;0.73;0.43;;;19.60;1.00;;;;;;5067141;28;20048;-67
2023/08/09 11:16:45;;;;;;;0.55;0.50;;;19.60;1.00;;;;;;5065654;28;20071;-68
2023/08/09 11:19:15;;;;;;;2.35;0.68;;;19.50;1.00;;;;;;5066828;28;20531;-68
2023/08/09 11:21:52;;;;;;;3.72;0.85;;;19.30;1.00;;;;;;5067934;28;20586;-67
2023/08/09 11:24:21;;;;;;;3.58;0.70;;;19.00;1.00;;;;;;5067966;28;20148;-67
2023/08/09 11:26:53;;;;;;;3.45;0.63;;;18.90;1.00;;;;;;5057627;28;20052;-67
2023/08/09 11:29:22;;;;;;;1.23;0.80;;;18.90;1.00;;;;;;5054837;28;20058;-67
2023/08/09 11:31:50;;;;;;;1.48;0.50;;;19.00;1.00;;;;;;5069540;28;20048;-67
2023/08/09 11:34:18;;;;;;;2.15;0.73;;;19.20;1.00;;;;;;5067091;28;20575;-68
2023/08/09 11:36:47;;;;;;;1.95;0.68;;;19.40;1.00;;;;;;5053779;28;20048;-67
2023/08/09 11:39:14;;;;;;;1.40;0.70;;;19.40;1.00;;;;;;5052145;28;20140;-67
2023/08/09 11:41:53;;;;;;;4.15;0.70;;;19.40;1.00;;;;;;5061437;28;20031;-68
2023/08/09 11:44:26;;;;;;;0.73;0.55;;;19.30;1.00;;;;;;5057691;28;20057;-67
2023/08/09 11:46:56;;;;;;;0.98;0.60;;;19.20;1.00;;;;;;5068277;28;20132;-68
2023/08/09 11:49:30;;;;;;;5.72;0.70;;;19.10;1.00;;;;;;5044067;28;20057;-68
2023/08/09 11:51:56;;;;;;;1.42;0.60;;;19.20;1.00;;;;;;5039606;28;20495;-67
2023/08/09 11:54:22;;;;;;;1.90;0.73;;;19.40;1.00;;;;;;5067278;28;20048;-68
2023/08/09 11:56:49;;;;;;;1.45;0.70;;;19.40;1.00;;;;;;5072797;28;20081;-68
2023/08/09 11:59:19;;;;;;;2.42;0.98;;;19.40;1.00;;;;;;5070693;28;20098;-67
2023/08/09 12:01:47;;;;;;;3.75;1.00;;;19.40;1.00;;;;;;5067328;28;20047;-68
2023/08/09 12:04:17;;;;;;;2.70;1.10;;;19.20;1.00;;;;;;5059586;28;20399;-68
2023/08/09 12:06:57;;;;;;;1.77;0.90;;;19.40;1.00;;;;;;5050084;28;20635;-68
2023/08/09 12:09:31;;;;;;;4.38;1.20;;;19.60;1.00;;;;;;5045695;28;20051;-68
2023/08/09 12:12:02;;;;;;;6.03;1.35;;;19.70;1.00;;;;;;5058522;28;20040;-67
2023/08/09 12:14:28;;;;;;;2.00;0.80;;;19.60;1.00;;;;;;5064787;28;20449;-68
2023/08/09 12:16:54;;;;;;;3.00;1.20;;;19.50;1.00;;;;;;5067040;28;20534;-68
2023/08/09 12:19:20;;;;;;;5.47;0.88;;;19.50;1.00;;;;;;5066005;28;20056;-67
2023/08/09 12:21:46;;;;;;;1.55;0.70;;;19.50;1.00;;;;;;5065802;28;20040;-69
2023/08/09 12:24:13;;;;;;;3.25;0.60;;;19.60;1.00;;;;;;5067692;28;20393;-68
2023/08/09 12:26:39;;;;;;;7.05;0.80;;;19.70;1.00;;;;;;5069733;28;20051;-67
2023/08/09 12:29:05;;;;;;;1.33;0.85;;;19.90;1.00;;;;;;5065422;28;20402;-68
2023/08/09 12:31:31;;;;;;;4.25;0.90;;;20.00;1.00;;;;;;5067524;28;20037;-69
2023/08/09 12:33:57;;;;;;;4.28;1.20;;;20.20;1.00;;;;;;5069037;28;20063;-68
2023/08/09 12:36:22;;;;;;;3.97;0.50;;;20.00;1.00;;;;;;5065514;28;20412;-68
2023/08/09 12:38:48;;;;;;;3.38;1.10;;;19.90;1.00;;;;;;5066543;28;20051;-68
2023/08/09 12:41:14;;;;;;;3.05;0.80;;;20.00;1.00;;;;;;5062910;28;20060;-68
2023/08/09 12:43:40;;;;;;;3.20;0.80;;;20.20;1.00;;;;;;5070983;28;20493;-67
2023/08/09 12:46:05;;;;;;;4.90;1.33;;;20.20;1.00;;;;;;5061871;28;20579;-67
2023/08/09 12:48:31;;;;;;;4.38;1.10;;;20.10;1.00;;;;;;5068495;28;20047;-68
2023/08/09 12:50:57;;;;;;;2.28;0.70;;;20.00;1.00;;;;;;5058774;28;20119;-67